createdAt,value
2018-06-19T00:01:40.592Z,15.00
2018-06-19T00:04:09.074Z,15.00
2018-06-19T00:06:37.650Z,15.00
2018-06-19T00:09:07.724Z,15.00
2018-06-19T00:11:36.271Z,15.00
2018-06-19T00:14:04.836Z,15.00
2018-06-19T00:16:33.473Z,15.00
2018-06-19T00:19:02.920Z,15.10
2018-06-19T00:21:36.897Z,15.10
2018-06-19T00:26:33.591Z,15.10
2018-06-19T00:29:02.192Z,15.20
2018-06-19T00:31:30.766Z,15.20
2018-06-19T00:33:59.295Z,15.20
2018-06-19T00:36:27.836Z,15.20
2018-06-19T00:38:56.320Z,15.20
2018-06-19T00:41:24.858Z,15.20
2018-06-19T00:43:59.844Z,15.30
2018-06-19T00:46:29.515Z,15.30
2018-06-19T00:48:58.024Z,15.30
2018-06-19T00:51:26.877Z,15.40
2018-06-19T00:53:55.387Z,15.40
2018-06-19T00:56:35.062Z,15.40
2018-06-19T00:59:03.725Z,15.40
2018-06-19T01:01:32.233Z,15.40
2018-06-19T01:04:00.699Z,15.50
2018-06-19T01:06:29.240Z,15.50
2018-06-19T01:08:57.742Z,15.50
2018-06-19T01:11:26.197Z,15.60
2018-06-19T01:13:55.025Z,15.60
2018-06-19T01:16:23.564Z,15.70
2018-06-19T01:18:52.187Z,15.70
2018-06-19T01:21:20.748Z,15.70
2018-06-19T01:23:49.245Z,15.70
2018-06-19T01:26:17.738Z,15.70
2018-06-19T01:28:46.525Z,15.70
2018-06-19T01:31:15.091Z,15.70
2018-06-19T01:33:43.694Z,15.80
2018-06-19T01:36:12.226Z,15.80
2018-06-19T01:41:08.924Z,15.80
2018-06-19T01:43:37.477Z,15.80
2018-06-19T01:46:06.035Z,15.80
2018-06-19T01:48:34.570Z,15.70
2018-06-19T01:51:03.055Z,15.80
2018-06-19T01:53:31.567Z,15.70
2018-06-19T01:56:00.096Z,15.80
2018-06-19T01:58:28.732Z,15.80
2018-06-19T02:00:57.241Z,15.80
2018-06-19T02:03:25.759Z,15.80
2018-06-19T02:05:54.216Z,15.70
2018-06-19T02:08:22.751Z,15.70
2018-06-19T02:10:51.249Z,15.80
2018-06-19T02:13:19.769Z,15.70
2018-06-19T02:18:16.732Z,15.70
2018-06-19T02:20:45.236Z,15.70
2018-06-19T02:23:13.760Z,15.70
2018-06-19T02:25:43.481Z,15.70
2018-06-19T02:28:11.986Z,15.70
2018-06-19T02:30:40.476Z,15.70
2018-06-19T02:33:08.941Z,15.70
2018-06-19T02:35:37.440Z,15.70
2018-06-19T02:38:05.977Z,15.70
2018-06-19T02:40:34.450Z,15.70
2018-06-19T02:43:02.896Z,15.70
2018-06-19T02:45:31.383Z,15.70
2018-06-19T02:47:59.845Z,15.70
2018-06-19T02:52:57.287Z,15.70
2018-06-19T02:55:25.794Z,15.70
2018-06-19T02:57:54.277Z,15.70
2018-06-19T03:00:22.828Z,15.70
2018-06-19T03:02:51.272Z,15.70
2018-06-19T03:05:21.314Z,15.70
2018-06-19T03:07:49.940Z,15.70
2018-06-19T03:10:22.274Z,15.70
2018-06-19T03:12:50.800Z,15.70
2018-06-19T03:15:19.287Z,15.70
2018-06-19T03:17:47.800Z,15.60
2018-06-19T03:20:16.328Z,15.60
2018-06-19T03:22:44.851Z,15.60
2018-06-19T03:25:13.428Z,15.60
2018-06-19T03:27:41.968Z,15.60
2018-06-19T03:30:10.616Z,15.60
2018-06-19T03:32:38.986Z,15.60
2018-06-19T03:35:07.692Z,15.60
2018-06-19T03:37:36.186Z,15.60
2018-06-19T03:40:04.698Z,15.50
2018-06-19T03:42:33.233Z,15.60
2018-06-19T03:45:01.746Z,15.50
2018-06-19T03:47:30.209Z,15.40
2018-06-19T03:49:58.720Z,15.40
2018-06-19T03:52:27.639Z,15.30
2018-06-19T03:54:56.191Z,15.40
2018-06-19T03:57:24.683Z,15.30
2018-06-19T03:59:54.094Z,15.40
2018-06-19T04:02:22.679Z,15.40
2018-06-19T04:04:51.340Z,15.50
2018-06-19T04:07:19.780Z,15.50
2018-06-19T04:09:48.268Z,15.60
2018-06-19T04:12:16.762Z,15.60
2018-06-19T04:14:45.235Z,15.60
2018-06-19T04:17:19.079Z,15.70
2018-06-19T04:19:47.539Z,15.70
2018-06-19T04:22:16.038Z,15.70
2018-06-19T04:24:44.513Z,15.80
2018-06-19T04:27:13.018Z,15.80
2018-06-19T04:29:41.552Z,15.80
2018-06-19T04:32:10.083Z,15.80
2018-06-19T04:34:38.548Z,15.80
2018-06-19T04:37:07.037Z,15.90
2018-06-19T04:39:35.537Z,15.90
2018-06-19T04:42:04.041Z,15.90
2018-06-19T04:44:32.481Z,15.90
2018-06-19T04:47:01.089Z,15.90
2018-06-19T04:49:29.562Z,16.00
2018-06-19T04:51:58.079Z,16.00
2018-06-19T04:54:26.539Z,16.00
2018-06-19T04:56:54.994Z,16.00
2018-06-19T04:59:23.501Z,16.00
2018-06-19T05:01:51.992Z,16.00
2018-06-19T05:04:20.431Z,16.00
2018-06-19T05:06:48.949Z,16.00
2018-06-19T05:09:17.434Z,16.00
2018-06-19T05:11:46.311Z,16.00
2018-06-19T05:14:14.805Z,16.00
2018-06-19T05:16:43.716Z,16.00
2018-06-19T05:19:12.159Z,16.00
2018-06-19T05:21:40.631Z,16.00
2018-06-19T05:24:09.094Z,16.00
2018-06-19T05:26:37.610Z,16.00
2018-06-19T05:29:06.072Z,16.00
2018-06-19T05:31:34.563Z,16.00
2018-06-19T05:34:03.013Z,16.00
2018-06-19T05:36:31.490Z,16.00
2018-06-19T05:38:59.948Z,16.00
2018-06-19T05:41:28.452Z,15.90
2018-06-19T05:43:56.914Z,15.80
2018-06-19T05:48:53.691Z,15.70
2018-06-19T05:51:22.132Z,15.70
2018-06-19T05:53:50.626Z,15.70
2018-06-19T05:56:19.070Z,15.70
2018-06-19T05:58:47.604Z,15.60
2018-06-19T06:01:16.724Z,15.60
2018-06-19T06:03:49.989Z,15.60
2018-06-19T06:08:50.464Z,15.70
2018-06-19T06:11:18.919Z,15.60
2018-06-19T06:13:47.463Z,15.60
2018-06-19T06:16:16.071Z,15.70
2018-06-19T06:18:44.575Z,15.70
2018-06-19T06:21:13.177Z,15.70
2018-06-19T06:23:41.692Z,15.80
2018-06-19T06:26:10.197Z,15.80
2018-06-19T06:28:38.761Z,15.80
2018-06-19T06:31:07.466Z,15.80
2018-06-19T06:33:36.081Z,15.90
2018-06-19T06:38:32.916Z,15.90
2018-06-19T06:41:01.486Z,16.00
2018-06-19T06:43:30.020Z,16.00
2018-06-19T06:45:58.819Z,16.10
2018-06-19T06:48:27.683Z,16.10
2018-06-19T06:50:56.439Z,16.20
2018-06-19T06:53:25.100Z,16.30
2018-06-19T06:55:53.662Z,16.50
2018-06-19T06:58:22.200Z,16.60
2018-06-19T07:00:50.721Z,16.80
2018-06-19T07:03:20.073Z,16.90
2018-06-19T07:05:48.617Z,17.00
2018-06-19T07:08:17.533Z,17.10
2018-06-19T07:10:46.161Z,17.10
2018-06-19T07:13:14.724Z,17.20
2018-06-19T07:15:43.349Z,17.30
2018-06-19T07:18:12.000Z,17.20
2018-06-19T07:20:40.579Z,17.20
2018-06-19T07:23:09.399Z,17.20
2018-06-19T07:25:38.075Z,17.30
2018-06-19T07:28:07.115Z,17.30
2018-06-19T07:30:35.644Z,17.30
2018-06-19T07:33:04.200Z,17.30
2018-06-19T07:35:32.757Z,17.40
2018-06-19T07:38:01.410Z,17.50
2018-06-19T07:40:29.866Z,17.60
2018-06-19T07:43:03.179Z,17.60
2018-06-19T07:45:31.875Z,17.60
2018-06-19T07:48:01.245Z,17.60
2018-06-19T07:50:30.483Z,17.70
2018-06-19T07:52:59.079Z,17.70
2018-06-19T07:55:27.578Z,17.60
2018-06-19T07:57:56.195Z,17.60
2018-06-19T08:00:24.862Z,17.50
2018-06-19T08:02:53.384Z,17.40
2018-06-19T08:05:21.900Z,17.40
2018-06-19T08:07:50.401Z,17.40
2018-06-19T08:10:18.877Z,17.50
2018-06-19T08:12:48.126Z,17.60
2018-06-19T08:15:17.023Z,17.70
2018-06-19T08:17:45.545Z,17.80
2018-06-19T08:20:14.062Z,18.10
2018-06-19T08:22:42.552Z,18.20
2018-06-19T08:25:11.041Z,18.10
2018-06-19T08:27:39.531Z,17.90
2018-06-19T08:30:08.103Z,17.80
2018-06-19T08:32:36.599Z,17.60
2018-06-19T08:35:05.120Z,17.60
2018-06-19T08:37:33.598Z,17.70
2018-06-19T08:40:02.073Z,17.70
2018-06-19T08:42:30.560Z,17.60
2018-06-19T08:44:59.007Z,17.50
2018-06-19T08:47:27.478Z,17.50
2018-06-19T08:49:56.001Z,17.50
2018-06-19T08:52:24.480Z,17.50
2018-06-19T08:54:52.973Z,17.70
2018-06-19T08:57:21.447Z,17.80
2018-06-19T09:02:18.141Z,17.90
2018-06-19T09:04:46.719Z,18.00
2018-06-19T09:07:16.213Z,18.10
2018-06-19T09:09:46.756Z,18.10
2018-06-19T09:12:15.383Z,18.10
2018-06-19T09:14:43.875Z,18.00
2018-06-19T09:17:12.417Z,18.10
2018-06-19T09:19:40.950Z,18.10
2018-06-19T09:22:09.424Z,18.20
2018-06-19T09:24:38.068Z,18.30
2018-06-19T09:27:06.564Z,18.40
2018-06-19T09:29:35.127Z,18.50
2018-06-19T09:32:03.650Z,18.40
2018-06-19T09:34:32.234Z,18.40
2018-06-19T09:37:00.733Z,18.40
2018-06-19T09:41:57.516Z,18.20
2018-06-19T09:44:26.024Z,18.10
2018-06-19T09:46:54.488Z,18.00
2018-06-19T09:49:23.003Z,17.90
2018-06-19T09:51:51.598Z,18.00
2018-06-19T09:54:20.097Z,18.10
2018-06-19T09:56:48.595Z,18.20
2018-06-19T09:59:17.270Z,18.40
2018-06-19T10:01:46.355Z,18.50
2018-06-19T10:04:14.903Z,18.60
2018-06-19T10:06:43.424Z,18.60
2018-06-19T10:09:12.043Z,18.50
2018-06-19T10:11:42.024Z,18.40
2018-06-19T10:14:10.534Z,18.50
2018-06-19T10:16:42.807Z,18.60
2018-06-19T10:19:13.491Z,18.80
2018-06-19T10:21:46.258Z,19.10
2018-06-19T10:24:19.711Z,19.30
2018-06-19T10:26:48.296Z,19.30
2018-06-19T10:31:44.996Z,19.00
2018-06-19T10:34:13.496Z,19.00
2018-06-19T10:36:41.951Z,19.10
2018-06-19T10:39:11.465Z,19.10
2018-06-19T10:41:39.980Z,19.10
2018-06-19T10:44:08.435Z,19.10
2018-06-19T10:46:36.938Z,19.10
2018-06-19T10:49:05.427Z,19.10
2018-06-19T10:51:33.972Z,19.20
2018-06-19T10:54:06.231Z,19.30
2018-06-19T10:56:34.768Z,19.20
2018-06-19T10:59:03.415Z,19.10
2018-06-19T11:04:00.103Z,19.20
2018-06-19T11:06:29.506Z,19.30
2018-06-19T11:08:59.396Z,19.40
2018-06-19T11:11:28.828Z,19.50
2018-06-19T11:13:58.532Z,19.50
2018-06-19T11:16:28.526Z,19.40
2018-06-19T11:18:58.265Z,19.40
2018-06-19T11:21:27.981Z,19.60
2018-06-19T11:23:57.726Z,19.70
2018-06-19T11:28:56.381Z,19.80
2018-06-19T11:31:26.496Z,19.90
2018-06-19T11:33:55.990Z,19.90
2018-06-19T11:36:25.932Z,19.80
2018-06-19T11:38:55.256Z,19.80
2018-06-19T11:41:24.803Z,19.70
2018-06-19T11:43:53.973Z,19.80
2018-06-19T11:46:22.919Z,19.70
2018-06-19T11:48:51.710Z,19.60
2018-06-19T11:51:20.576Z,19.80
2018-06-19T11:53:49.128Z,19.80
2018-06-19T11:56:17.629Z,19.80
2018-06-19T11:58:46.089Z,19.90
2018-06-19T12:01:14.591Z,20.00
2018-06-19T12:03:44.792Z,20.20
2018-06-19T12:06:13.949Z,20.30
2018-06-19T12:08:42.457Z,20.30
2018-06-19T12:11:11.024Z,20.30
2018-06-19T12:13:39.816Z,20.30
2018-06-19T12:16:08.353Z,20.10
2018-06-19T12:18:37.991Z,20.00
2018-06-19T12:21:08.872Z,19.90
2018-06-19T12:23:40.884Z,19.90
2018-06-19T12:26:09.432Z,20.00
2018-06-19T12:28:38.288Z,20.10
2018-06-19T12:31:06.804Z,20.20
2018-06-19T12:33:35.354Z,20.20
2018-06-19T12:36:04.033Z,20.20
2018-06-19T12:38:34.184Z,20.40
2018-06-19T12:41:02.736Z,20.60
2018-06-19T12:43:31.310Z,20.70
2018-06-19T12:46:01.616Z,20.90
2018-06-19T12:48:30.226Z,21.20
2018-06-19T12:52:06.936Z,21.30
2018-06-19T12:55:21.046Z,21.40
2018-06-19T12:57:49.770Z,21.40
2018-06-19T13:00:18.603Z,21.40
2018-06-19T13:02:58.790Z,21.30
2018-06-19T13:05:38.423Z,21.40
2018-06-19T13:08:06.942Z,21.40
2018-06-19T13:10:40.546Z,21.30
2018-06-19T13:13:21.991Z,21.30
2018-06-19T13:15:51.744Z,21.50
2018-06-19T13:18:32.369Z,21.80
2018-06-19T13:21:00.864Z,21.70
2018-06-19T13:23:29.600Z,21.90
2018-06-19T13:28:42.100Z,22.20
2018-06-19T13:31:21.814Z,22.20
2018-06-19T13:33:50.283Z,21.80
2018-06-19T13:36:18.821Z,21.50
2018-06-19T13:38:51.030Z,21.50
2018-06-19T13:41:33.522Z,21.40
2018-06-19T13:45:18.561Z,21.60
2018-06-19T13:50:16.568Z,22.30
2018-06-19T13:52:45.093Z,22.60
2018-06-19T13:57:41.556Z,22.70
2018-06-19T14:00:13.057Z,22.90
2018-06-19T14:02:41.725Z,22.30
2018-06-19T14:05:10.852Z,22.20
2018-06-19T14:15:48.572Z,22.50
2018-06-19T14:18:18.536Z,22.50
2018-06-19T14:20:51.004Z,22.80
2018-06-19T14:23:24.029Z,23.10
2018-06-19T14:25:52.524Z,23.10
2018-06-19T14:28:21.004Z,23.10
2018-06-19T14:30:50.806Z,22.80
2018-06-19T14:33:19.299Z,22.70
2018-06-19T14:35:47.848Z,22.40
2018-06-19T14:38:16.404Z,22.30
2018-06-19T14:40:44.849Z,22.60
2018-06-19T14:43:13.335Z,22.80
2018-06-19T14:45:41.827Z,23.10
2018-06-19T14:48:10.304Z,23.50
2018-06-19T14:50:38.769Z,23.90
2018-06-19T14:53:07.245Z,23.70
2018-06-19T14:55:42.052Z,23.60
2018-06-19T14:58:10.535Z,23.60
2018-06-19T15:00:39.013Z,23.80
2018-06-19T15:03:07.518Z,23.80
2018-06-19T15:05:37.129Z,23.80
2018-06-19T15:08:05.628Z,23.80
2018-06-19T15:10:34.210Z,23.90
2018-06-19T15:13:03.882Z,24.00
2018-06-19T15:15:32.512Z,24.00
2018-06-19T15:18:01.003Z,24.30
2018-06-19T15:20:29.516Z,24.30
2018-06-19T15:25:26.166Z,23.10
2018-06-19T15:27:54.692Z,22.40
2018-06-19T15:30:23.175Z,22.20
2018-06-19T15:32:51.713Z,22.00
2018-06-19T15:37:48.569Z,21.70
2018-06-19T15:40:17.338Z,21.70
2018-06-19T15:42:45.833Z,21.80
2018-06-19T15:45:14.369Z,21.90
2018-06-19T15:47:42.899Z,22.00
2018-06-19T15:50:11.470Z,22.60
2018-06-19T15:52:39.989Z,23.20
2018-06-19T15:57:36.696Z,23.20
2018-06-19T16:00:05.472Z,23.00
2018-06-19T16:02:33.937Z,22.80
2018-06-19T16:05:02.493Z,23.10
2018-06-19T16:09:59.262Z,22.70
2018-06-19T16:14:56.070Z,22.00
2018-06-19T16:17:24.590Z,21.80
2018-06-19T16:19:55.977Z,21.60
2018-06-19T16:22:24.501Z,21.60
2018-06-19T16:24:52.991Z,21.50
2018-06-19T16:27:24.528Z,21.50
2018-06-19T16:29:53.052Z,21.50
2018-06-19T16:34:49.749Z,21.80
2018-06-19T16:37:18.283Z,22.10
2018-06-19T16:39:46.828Z,22.30
2018-06-19T16:42:15.342Z,22.60
2018-06-19T16:44:43.893Z,22.90
2018-06-19T16:47:12.437Z,23.30
2018-06-19T16:49:40.953Z,23.90
2018-06-19T16:52:09.485Z,24.50
2018-06-19T16:54:37.996Z,24.40
2018-06-19T16:57:06.572Z,24.00
2018-06-19T16:59:35.228Z,23.70
2018-06-19T17:02:03.774Z,23.60
2018-06-19T17:04:32.281Z,23.50
2018-06-19T17:07:00.814Z,23.10
2018-06-19T17:09:29.395Z,23.00
2018-06-19T17:11:58.017Z,23.00
2018-06-19T17:14:26.570Z,22.80
2018-06-19T17:16:55.300Z,22.50
2018-06-19T17:19:23.831Z,22.30
2018-06-19T17:21:52.368Z,22.10
2018-06-19T17:24:20.868Z,21.80
2018-06-19T17:26:49.424Z,21.80
2018-06-19T17:29:18.038Z,21.90
2018-06-19T17:31:46.543Z,22.10
2018-06-19T17:34:15.059Z,22.10
2018-06-19T17:36:43.602Z,22.00
2018-06-19T17:41:40.607Z,21.50
2018-06-19T17:44:09.177Z,21.30
2018-06-19T17:46:37.685Z,21.00
2018-06-19T17:49:06.433Z,20.90
2018-06-19T17:51:35.330Z,20.90
2018-06-19T17:54:03.887Z,21.20
2018-06-19T17:56:32.452Z,21.10
2018-06-19T17:59:00.976Z,20.90
2018-06-19T18:01:29.961Z,20.70
2018-06-19T18:03:58.460Z,20.60
2018-06-19T18:06:26.948Z,21.20
2018-06-19T18:08:55.481Z,21.80
2018-06-19T18:11:24.038Z,22.00
2018-06-19T18:13:52.527Z,22.10
2018-06-19T18:16:21.086Z,22.10
2018-06-19T18:18:49.673Z,22.00
2018-06-19T18:21:18.151Z,21.60
2018-06-19T18:23:46.712Z,21.20
2018-06-19T18:26:15.444Z,20.80
2018-06-19T18:28:43.989Z,20.50
2018-06-19T18:31:12.458Z,20.30
2018-06-19T18:33:40.969Z,20.10
2018-06-19T18:36:09.501Z,19.90
2018-06-19T18:38:38.046Z,19.70
2018-06-19T18:41:06.601Z,19.50
2018-06-19T18:43:35.086Z,19.50
2018-06-19T18:46:03.552Z,19.50
2018-06-19T18:48:32.065Z,19.50
2018-06-19T18:51:00.751Z,19.40
2018-06-19T18:53:29.326Z,19.40
2018-06-19T18:55:57.939Z,19.50
2018-06-19T18:58:26.731Z,19.40
2018-06-19T19:00:55.249Z,19.30
2018-06-19T19:05:51.976Z,19.00
2018-06-19T19:08:21.524Z,18.90
2018-06-19T19:10:52.232Z,18.90
2018-06-19T19:13:22.153Z,18.80
2018-06-19T19:15:56.686Z,18.80
2018-06-19T19:18:30.664Z,18.80
2018-06-19T19:21:00.063Z,18.70
2018-06-19T19:23:29.321Z,18.60
2018-06-19T19:25:57.872Z,18.60
2018-06-19T19:28:31.691Z,18.50
2018-06-19T19:31:00.255Z,18.50
2018-06-19T19:33:28.777Z,18.40
2018-06-19T19:38:30.920Z,18.20
2018-06-19T19:40:59.531Z,18.20
2018-06-19T19:43:28.171Z,18.20
2018-06-19T19:45:56.668Z,18.10
2018-06-19T19:48:32.139Z,18.10
2018-06-19T19:53:36.404Z,18.00
2018-06-19T19:56:12.424Z,18.10
2018-06-19T19:58:46.366Z,18.00
2018-06-19T20:03:43.112Z,17.90
2018-06-19T20:08:39.847Z,17.90
2018-06-19T20:11:08.372Z,17.80
2018-06-19T20:13:36.886Z,17.80
2018-06-19T20:16:06.862Z,17.70
2018-06-19T20:18:35.351Z,17.70
2018-06-19T20:21:03.998Z,17.70
2018-06-19T20:23:32.656Z,17.70
2018-06-19T20:26:01.190Z,17.60
2018-06-19T20:28:29.782Z,17.60
2018-06-19T20:30:58.274Z,17.70
2018-06-19T20:33:27.049Z,17.70
2018-06-19T20:38:23.767Z,17.60
2018-06-19T20:40:52.332Z,17.60
2018-06-19T20:43:20.849Z,17.60
2018-06-19T20:45:49.380Z,17.60
2018-06-19T20:48:17.896Z,17.60
2018-06-19T20:50:46.474Z,17.50
2018-06-19T20:53:14.993Z,17.40
2018-06-19T20:55:43.525Z,17.40
2018-06-19T20:58:12.119Z,17.20
2018-06-19T21:00:41.266Z,17.10
2018-06-19T21:03:10.344Z,17.10
2018-06-19T21:05:38.997Z,17.00
2018-06-19T21:08:07.948Z,17.10
2018-06-19T21:13:05.030Z,17.10
2018-06-19T21:15:34.165Z,17.10
2018-06-19T21:18:02.976Z,17.10
2018-06-19T21:20:31.919Z,17.10
2018-06-19T21:23:01.096Z,17.00
2018-06-19T21:28:00.021Z,17.00
2018-06-19T21:30:29.591Z,17.00
2018-06-19T21:32:58.136Z,17.00
2018-06-19T21:35:26.668Z,17.00
2018-06-19T21:37:55.212Z,17.00
2018-06-19T21:40:23.712Z,16.90
2018-06-19T21:42:52.781Z,16.90
2018-06-19T21:45:21.291Z,16.90
2018-06-19T21:47:50.623Z,16.80
2018-06-19T21:50:19.240Z,16.80
2018-06-19T21:52:47.860Z,16.80
2018-06-19T21:55:16.583Z,16.80
2018-06-19T21:57:45.126Z,16.80
2018-06-19T22:00:22.089Z,16.80
2018-06-19T22:02:51.436Z,16.80
2018-06-19T22:05:20.229Z,16.80
2018-06-19T22:07:48.736Z,16.80
2018-06-19T22:10:17.321Z,16.80
2018-06-19T22:12:45.956Z,16.80
2018-06-19T22:15:14.520Z,16.90
2018-06-19T22:17:43.040Z,16.80
2018-06-19T22:20:11.639Z,16.80
2018-06-19T22:25:08.407Z,16.80
2018-06-19T22:27:36.955Z,16.80
2018-06-19T22:30:05.723Z,16.80
2018-06-19T22:32:34.235Z,16.70
2018-06-19T22:35:02.902Z,16.60
2018-06-19T22:37:31.411Z,16.50
2018-06-19T22:39:59.900Z,16.50
2018-06-19T22:44:56.644Z,16.20
2018-06-19T22:47:25.174Z,16.10
2018-06-19T22:49:53.697Z,16.00
2018-06-19T22:52:22.278Z,15.90
2018-06-19T22:54:50.775Z,15.80
2018-06-19T22:57:19.363Z,15.70
2018-06-19T22:59:47.962Z,15.60
2018-06-19T23:02:16.439Z,15.40
2018-06-19T23:04:44.955Z,15.40
2018-06-19T23:07:13.561Z,15.30
2018-06-19T23:09:42.088Z,15.20
2018-06-19T23:12:10.804Z,15.20
2018-06-19T23:14:39.422Z,15.10
2018-06-19T23:17:07.955Z,15.10
2018-06-19T23:19:36.566Z,15.10
2018-06-19T23:22:05.065Z,15.00
2018-06-19T23:24:34.253Z,15.00
2018-06-19T23:27:02.896Z,14.90
2018-06-19T23:29:31.371Z,14.90
2018-06-19T23:31:59.876Z,14.80
2018-06-19T23:36:56.620Z,14.80
2018-06-19T23:41:53.535Z,14.80
2018-06-19T23:44:22.041Z,14.80
2018-06-19T23:49:18.846Z,14.70
2018-06-19T23:51:47.626Z,14.60
2018-06-19T23:54:16.477Z,14.60
2018-06-19T23:56:44.969Z,14.60
2018-06-19T23:59:13.496Z,14.50
